Mineral, California
Current Conditions -  °F | °C
As of 11:54 AM on Monday 22 Dec 2014 (Local Time) from KRBL Reporting Station
Clear Clear  
Wind Chill: 61°   Ceiling: Unl
Heat Index: 61°   Visibility: 10mi
Dew Point: 54°   Wind: 7mph
Humidity: 78%   Direction: 350°N
Pressure: 30.26"   Gusts: NA
Location:  40.35°N, 121.6°W
Report Text: KRBL 221954Z AUTO 35006KT 10SM CLR 16/12 A3026 RMK AO2 SLP244 T01610122
Loading
Personal Weather Stations






























Interactive Weather Map New forecast layout! Learn more

10-Day Weather Forecast

Advertisements
Track Severe Weather on mobile